Time;durP1;ratioP1;P1;durP2;ratioP2;P2;SDS_P1;SDS_P2;PMS_P1;PMS_P2;Temp;Humidity;BMP_temperature;BMP_pressure;BME280_temperature;BME280_humidity;BME280_pressure;Samples;Min_cycle;Max_cycle;Signal;HPM_P1;HPM_P2
2022/05/05 00:01:32;;;;;;;12.75;8.35;;;;;;;16.34;64.69;100186.94;4443325;32;33590;-82
2022/05/05 00:04:01;;;;;;;13.73;9.35;;;;;;;16.34;64.94;100193.06;4442242;32;33636;-84
2022/05/05 00:06:28;;;;;;;14.18;8.65;;;;;;;16.33;64.36;100195.63;4408541;32;32579;-84
2022/05/05 00:08:56;;;;;;;12.25;8.55;;;;;;;15.82;66.77;100202.00;4431770;32;33588;-84
2022/05/05 00:14:27;;;;;;;11.38;7.93;;;;;;;16.42;64.42;100190.66;4444175;32;34606;-83
2022/05/05 00:16:57;;;;;;;14.85;9.20;;;;;;;15.50;69.09;100194.03;4433975;32;33957;-83
2022/05/05 00:19:26;;;;;;;11.57;8.98;;;;;;;15.63;68.45;100190.09;4441186;32;33510;-84
2022/05/05 00:21:54;;;;;;;11.68;8.82;;;;;;;14.79;72.90;100190.88;4442110;32;33855;-84
2022/05/05 00:24:22;;;;;;;12.55;8.90;;;;;;;15.06;72.12;100197.00;4442578;32;33918;-83
2022/05/05 00:26:49;;;;;;;12.05;9.27;;;;;;;14.75;73.42;100190.75;4434292;32;34137;-83
2022/05/05 00:29:17;;;;;;;14.65;9.45;;;;;;;14.08;76.43;100203.97;4432042;32;33185;-83
2022/05/05 00:31:46;;;;;;;12.93;9.30;;;;;;;14.01;77.83;100204.59;4432161;32;33854;-83
2022/05/05 00:34:13;;;;;;;16.90;10.00;;;;;;;14.05;78.40;100203.84;4417781;32;33810;-84
2022/05/05 00:36:41;;;;;;;11.95;8.70;;;;;;;14.87;74.81;100186.78;4429640;32;33832;-84
2022/05/05 00:39:11;;;;;;;16.33;10.40;;;;;;;14.94;73.76;100183.56;4427550;32;32625;-84
2022/05/05 00:41:44;;;;;;;15.20;9.82;;;;;;;14.23;77.31;100191.50;4433825;32;34004;-82
2022/05/05 00:44:13;;;;;;;18.30;11.57;;;;;;;14.36;77.33;100185.00;4429486;32;34610;-83
2022/05/05 00:46:46;;;;;;;18.40;11.48;;;;;;;14.72;75.25;100180.22;4427430;32;34714;-84
2022/05/05 00:49:14;;;;;;;15.70;11.32;;;;;;;14.31;77.20;100176.13;4431488;32;32325;-84
2022/05/05 00:51:41;;;;;;;18.70;10.88;;;;;;;14.29;77.61;100177.81;4422409;32;32485;-84
2022/05/05 00:54:10;;;;;;;15.52;10.18;;;;;;;14.63;76.15;100172.09;4446369;32;34773;-84
2022/05/05 00:56:38;;;;;;;15.35;10.40;;;;;;;15.00;73.83;100164.62;4432615;32;34808;-84
2022/05/05 00:59:06;;;;;;;13.27;9.10;;;;;;;15.35;72.05;100168.34;4441457;32;34416;-83
2022/05/05 01:01:34;;;;;;;11.95;8.40;;;;;;;15.84;69.67;100175.09;4448142;32;33050;-85
2022/05/05 01:04:02;;;;;;;14.68;10.13;;;;;;;15.89;68.77;100167.38;4446729;32;33613;-84
2022/05/05 01:06:30;;;;;;;15.82;9.30;;;;;;;15.77;69.41;100173.13;4431451;32;32415;-84
2022/05/05 01:09:05;;;;;;;12.90;9.75;;;;;;;15.89;68.69;100168.25;4435242;32;33082;-83
2022/05/05 01:11:33;;;;;;;13.85;9.65;;;;;;;14.95;73.41;100177.50;4442107;32;34038;-83
2022/05/05 01:14:00;;;;;;;11.60;8.57;;;;;;;15.27;73.18;100169.81;4433494;32;34726;-83
2022/05/05 01:16:29;;;;;;;14.57;9.73;;;;;;;16.00;69.59;100171.19;4430441;32;32813;-83
2022/05/05 01:18:57;;;;;;;14.60;10.48;;;;;;;15.52;70.68;100177.56;4430527;32;33018;-83
2022/05/05 01:21:24;;;;;;;14.93;9.27;;;;;;;14.79;74.30;100181.31;4429890;32;32366;-83
2022/05/05 01:23:52;;;;;;;12.52;9.32;;;;;;;14.70;74.45;100176.69;4431471;32;33426;-83
2022/05/05 01:29:06;;;;;;;15.80;10.73;;;;;;;15.65;70.14;100177.97;4433598;32;32087;-83
2022/05/05 01:31:34;;;;;;;16.58;9.73;;;;;;;15.70;69.65;100186.81;4433729;32;33618;-83
2022/05/05 01:34:01;;;;;;;12.43;8.85;;;;;;;15.67;69.85;100186.75;4442799;32;33993;-83
2022/05/05 01:36:30;;;;;;;13.52;9.00;;;;;;;15.90;68.54;100185.72;4427083;32;34583;-83
2022/05/05 01:38:58;;;;;;;10.68;8.18;;;;;;;15.47;70.15;100193.94;4425554;32;33379;-83
2022/05/05 01:41:25;;;;;;;12.02;8.23;;;;;;;16.20;66.79;100184.81;4451321;32;33646;-83
2022/05/05 01:43:53;;;;;;;11.50;7.12;;;;;;;16.73;64.43;100188.84;4450847;32;34670;-83
2022/05/05 01:46:20;;;;;;;8.00;6.55;;;;;;;16.22;65.00;100196.19;4422251;32;33917;-83
2022/05/05 01:48:48;;;;;;;11.48;6.70;;;;;;;16.81;62.84;100197.81;4431892;32;33615;-83
2022/05/05 01:51:16;;;;;;;10.07;7.00;;;;;;;16.75;62.54;100201.12;4431942;32;33746;-83
2022/05/05 01:53:43;;;;;;;10.15;6.65;;;;;;;16.58;63.29;100219.00;4448605;32;33966;-83
2022/05/05 01:56:12;;;;;;;8.35;6.00;;;;;;;15.64;66.29;100220.56;4448393;32;34359;-83
2022/05/05 01:58:44;;;;;;;13.10;7.28;;;;;;;15.55;67.30;100229.03;4425566;32;32184;-83
2022/05/05 02:01:13;;;;;;;11.38;6.95;;;;;;;14.09;74.01;100243.09;4446246;32;33759;-83
2022/05/05 02:03:41;;;;;;;9.52;6.90;;;;;;;14.94;70.00;100233.13;4444038;32;33496;-83
2022/05/05 02:06:08;;;;;;;10.70;6.72;;;;;;;15.00;69.36;100248.09;4420886;32;33826;-83
2022/05/05 02:08:37;;;;;;;12.57;6.68;;;;;;;13.60;73.81;100255.91;4418409;32;32996;-83
2022/05/05 02:11:04;;;;;;;10.20;6.72;;;;;;;13.74;74.75;100249.56;4422921;32;32734;-83
2022/05/05 02:13:32;;;;;;;10.90;7.10;;;;;;;13.41;75.34;100250.00;4421622;32;33698;-83
2022/05/05 02:16:00;;;;;;;9.20;6.80;;;;;;;13.70;74.03;100258.97;4422908;32;33650;-83
2022/05/05 02:18:28;;;;;;;10.55;7.30;;;;;;;13.48;75.17;100259.84;4436509;32;33743;-83
2022/05/05 02:20:55;;;;;;;11.60;7.47;;;;;;;13.35;76.60;100263.66;4423771;32;34681;-83
2022/05/05 02:23:23;;;;;;;11.20;7.45;;;;;;;13.36;76.00;100251.50;4434706;32;33737;-83
2022/05/05 02:25:51;;;;;;;9.75;7.72;;;;;;;13.56;75.21;100255.81;4421817;32;33859;-83
2022/05/05 02:28:18;;;;;;;11.35;8.25;;;;;;;13.04;77.52;100257.94;4422591;32;34199;-83
2022/05/05 02:30:46;;;;;;;10.25;7.30;;;;;;;13.48;76.07;100252.03;4435965;32;34401;-83
2022/05/05 02:33:13;;;;;;;9.57;7.68;;;;;;;14.54;71.78;100252.53;4435268;32;33885;-83
2022/05/05 02:35:41;;;;;;;11.02;7.60;;;;;;;13.73;73.95;100252.97;4422478;32;32601;-83
2022/05/05 02:40:55;;;;;;;12.82;9.23;;;;;;;12.95;79.34;100255.84;4421465;32;33763;-83
2022/05/05 02:43:23;;;;;;;13.40;9.88;;;;;;;12.65;80.91;100243.34;4435718;32;34569;-83
2022/05/05 02:45:50;;;;;;;13.48;9.50;;;;;;;12.68;80.95;100248.66;4435932;32;32408;-83
2022/05/05 02:48:18;;;;;;;17.23;9.57;;;;;;;12.85;80.47;100251.97;4422240;32;33479;-83
2022/05/05 02:50:45;;;;;;;15.02;10.32;;;;;;;12.95;79.41;100253.25;4423106;32;34051;-83
2022/05/05 02:55:59;;;;;;;19.95;10.25;;;;;;;12.29;83.30;100259.06;4433233;32;33954;-83
2022/05/05 02:58:28;;;;;;;15.18;10.10;;;;;;;13.15;78.84;100242.00;4436752;32;33314;-83
2022/05/05 03:00:56;;;;;;;13.55;9.32;;;;;;;13.70;76.19;100243.34;4422671;32;33869;-83
2022/05/05 03:03:24;;;;;;;14.55;9.00;;;;;;;14.28;72.90;100249.00;4421690;32;34608;-83
2022/05/05 03:05:51;;;;;;;12.10;8.70;;;;;;;14.65;70.92;100234.72;4404392;32;33256;-83
2022/05/05 03:08:19;;;;;;;11.05;8.02;;;;;;;14.64;70.25;100244.28;4428618;32;33250;-83
2022/05/05 03:10:47;;;;;;;15.48;10.02;;;;;;;13.60;73.99;100246.44;4447722;32;33976;-84
2022/05/05 03:13:14;;;;;;;16.08;10.65;;;;;;;12.78;79.21;100249.94;4444516;32;34018;-83
2022/05/05 03:15:42;;;;;;;18.10;11.12;;;;;;;12.62;80.84;100251.00;4441845;32;34594;-83
2022/05/05 03:18:10;;;;;;;15.45;10.57;;;;;;;12.89;79.86;100247.81;4435602;32;33827;-83
2022/05/05 03:20:37;;;;;;;16.08;10.13;;;;;;;13.00;79.05;100246.56;4434641;32;33884;-83
2022/05/05 03:23:05;;;;;;;17.52;10.52;;;;;;;13.29;78.10;100249.44;4444949;32;32564;-83
2022/05/05 03:25:33;;;;;;;16.10;10.50;;;;;;;13.10;79.62;100242.62;4447828;32;34682;-83
2022/05/05 03:28:00;;;;;;;14.52;10.50;;;;;;;13.07;79.84;100237.28;4435517;32;33467;-83
2022/05/05 03:30:28;;;;;;;13.02;9.82;;;;;;;13.87;75.73;100236.19;4440347;32;33689;-83
2022/05/05 03:32:56;;;;;;;15.57;10.10;;;;;;;13.11;78.53;100237.47;4448794;32;34003;-83
2022/05/05 03:35:23;;;;;;;15.00;9.77;;;;;;;13.43;77.66;100240.53;4445112;32;33465;-83
2022/05/05 03:37:51;;;;;;;13.55;10.38;;;;;;;13.86;75.36;100238.72;4433968;32;35151;-83
2022/05/05 03:40:19;;;;;;;15.02;10.32;;;;;;;13.55;76.42;100245.34;4452838;32;34678;-82
2022/05/05 03:42:46;;;;;;;19.33;10.77;;;;;;;12.88;79.69;100235.62;4447481;32;33674;-83
2022/05/05 03:45:14;;;;;;;14.55;10.38;;;;;;;12.53;81.87;100247.97;4437682;32;33808;-83
2022/05/05 03:47:42;;;;;;;14.07;9.90;;;;;;;13.90;75.76;100235.41;4430978;32;33444;-83
2022/05/05 03:50:09;;;;;;;14.23;9.70;;;;;;;14.22;73.36;100239.25;4446635;32;33872;-83
2022/05/05 03:52:37;;;;;;;13.50;9.90;;;;;;;14.38;72.32;100229.38;4447774;32;33852;-83
2022/05/05 03:55:05;;;;;;;11.75;8.63;;;;;;;14.59;71.45;100234.50;4453399;32;33948;-83
2022/05/05 03:57:35;;;;;;;12.57;8.60;;;;;;;15.00;69.83;100233.31;4442118;32;33561;-83
2022/05/05 04:00:04;;;;;;;13.90;9.68;;;;;;;15.01;69.43;100235.09;4444046;32;33304;-83
2022/05/05 04:02:38;;;;;;;13.15;9.52;;;;;;;14.39;72.70;100238.94;4436175;32;33376;-83
2022/05/05 04:05:06;;;;;;;15.57;10.43;;;;;;;13.65;76.45;100252.69;4442478;32;33812;-83
2022/05/05 04:07:35;;;;;;;13.73;9.32;;;;;;;13.87;76.23;100245.69;4443779;32;33460;-83
2022/05/05 04:10:03;;;;;;;13.32;9.45;;;;;;;14.32;74.14;100248.28;4425916;32;33801;-83
2022/05/05 04:12:30;;;;;;;11.07;8.40;;;;;;;14.64;72.15;100235.53;4427759;32;33703;-82
2022/05/05 04:14:58;;;;;;;13.10;9.18;;;;;;;15.03;69.87;100238.66;4431919;32;34640;-83
2022/05/05 04:17:25;;;;;;;12.85;8.70;;;;;;;15.20;68.46;100233.09;4422149;32;33109;-83
2022/05/05 04:19:54;;;;;;;16.35;11.38;;;;;;;15.09;69.11;100237.97;4436809;32;32695;-83
2022/05/05 04:22:22;;;;;;;15.60;10.23;;;;;;;15.17;68.94;100246.06;4428831;32;35341;-83
2022/05/05 04:24:49;;;;;;;14.98;10.80;;;;;;;15.12;69.12;100238.06;4428896;32;33497;-83
2022/05/05 04:27:17;;;;;;;13.95;9.88;;;;;;;15.30;69.04;100237.81;4425879;32;33540;-83
2022/05/05 04:29:45;;;;;;;14.75;9.57;;;;;;;15.57;68.19;100248.25;4433576;32;32008;-83
2022/05/05 04:32:13;;;;;;;13.65;8.82;;;;;;;15.56;67.84;100245.56;4416080;32;33696;-83
2022/05/05 04:34:40;;;;;;;13.60;9.43;;;;;;;15.91;66.83;100255.41;4419174;32;34319;-82
2022/05/05 04:37:08;;;;;;;14.35;10.38;;;;;;;15.43;68.37;100250.41;4420330;32;33406;-83
2022/05/05 04:39:35;;;;;;;14.55;9.88;;;;;;;15.30;68.48;100251.72;4428037;32;33646;-83
2022/05/05 04:42:03;;;;;;;15.65;10.65;;;;;;;15.44;69.43;100252.16;4431064;32;34207;-82
2022/05/05 04:44:31;;;;;;;15.40;11.23;;;;;;;14.59;74.00;100260.59;4435614;32;34590;-83
2022/05/05 04:46:59;;;;;;;14.75;10.57;;;;;;;14.58;74.13;100264.88;4409130;32;32568;-82
2022/05/05 04:49:27;;;;;;;13.70;10.45;;;;;;;15.31;71.18;100260.44;4410515;32;34904;-83
2022/05/05 04:51:54;;;;;;;14.45;10.75;;;;;;;15.46;70.18;100258.31;4421994;32;34599;-83
2022/05/05 04:54:22;;;;;;;15.75;10.95;;;;;;;15.64;69.78;100257.13;4433294;32;33891;-83
2022/05/05 04:56:50;;;;;;;14.80;11.27;;;;;;;15.38;71.46;100257.19;4423963;32;33496;-83
2022/05/05 04:59:17;;;;;;;14.82;10.15;;;;;;;15.88;68.96;100255.31;4433689;32;33976;-82
2022/05/05 05:01:45;;;;;;;13.48;10.35;;;;;;;15.94;68.66;100259.84;4430470;32;33679;-83
2022/05/05 05:04:13;;;;;;;18.15;11.25;;;;;;;16.03;68.59;100259.22;4424774;32;34096;-83
2022/05/05 05:06:40;;;;;;;13.25;9.93;;;;;;;15.17;73.13;100254.75;4426895;32;33098;-82
2022/05/05 05:09:08;;;;;;;16.98;11.05;;;;;;;16.15;69.06;100254.37;4414155;32;33945;-83
2022/05/05 05:11:36;;;;;;;15.82;11.27;;;;;;;16.20;68.42;100247.53;4431010;32;33508;-82
2022/05/05 05:14:04;;;;;;;16.20;11.80;;;;;;;16.44;67.26;100251.72;4433047;32;33890;-82
2022/05/05 05:16:32;;;;;;;17.25;11.05;;;;;;;16.47;67.09;100251.81;4435892;32;33598;-83
2022/05/05 05:19:08;;;;;;;17.60;11.43;;;;;;;16.50;66.92;100249.28;4409916;32;34565;-82
2022/05/05 05:21:39;;;;;;;14.45;11.05;;;;;;;16.56;66.76;100253.81;4432050;32;33598;-82
2022/05/05 05:24:07;;;;;;;13.68;10.25;;;;;;;16.54;66.85;100253.75;4428034;32;33475;-83
2022/05/05 05:26:35;;;;;;;17.42;11.75;;;;;;;16.26;67.46;100258.22;4430986;32;33374;-83
2022/05/05 05:29:05;;;;;;;15.52;10.93;;;;;;;16.31;67.98;100256.59;4415624;32;32137;-82
2022/05/05 05:31:33;;;;;;;16.45;10.55;;;;;;;16.70;66.46;100255.94;4436934;32;33072;-83
2022/05/05 05:34:01;;;;;;;16.62;11.12;;;;;;;16.83;66.41;100246.72;4420334;32;33866;-83
2022/05/05 05:36:28;;;;;;;16.45;11.18;;;;;;;16.93;65.65;100254.81;4436520;32;33716;-83
2022/05/05 05:38:56;;;;;;;16.87;10.93;;;;;;;16.74;66.05;100256.91;4428977;32;33731;-83
2022/05/05 05:41:24;;;;;;;18.23;11.27;;;;;;;16.91;65.36;100257.41;4428879;32;34513;-83
2022/05/05 05:43:51;;;;;;;17.42;11.77;;;;;;;16.92;65.61;100260.87;4422511;32;34147;-82
2022/05/05 05:46:19;;;;;;;14.40;11.00;;;;;;;16.85;65.72;100259.84;4431162;32;33145;-82
2022/05/05 05:48:47;;;;;;;16.62;10.43;;;;;;;16.98;65.77;100259.34;4409141;32;33138;-83
2022/05/05 05:51:14;;;;;;;19.12;11.23;;;;;;;17.26;64.48;100260.91;4434753;32;33597;-83
2022/05/05 05:53:42;;;;;;;17.70;11.02;;;;;;;17.36;64.25;100264.63;4436381;32;36534;-83
2022/05/05 05:56:09;;;;;;;17.00;11.02;;;;;;;17.38;64.33;100265.56;4431782;32;34297;-82
2022/05/05 05:58:38;;;;;;;15.43;10.65;;;;;;;17.27;64.58;100274.91;4424571;32;33837;-83
2022/05/05 06:01:08;;;;;;;13.02;9.55;;;;;;;17.45;63.66;100275.34;4402471;32;34441;-83
2022/05/05 06:03:56;;;;;;;14.43;9.65;;;;;;;17.55;63.25;100270.34;4421251;32;34363;-82
2022/05/05 06:06:24;;;;;;;15.48;9.55;;;;;;;17.48;63.38;100278.06;4435759;32;33269;-82
2022/05/05 06:08:52;;;;;;;14.90;9.88;;;;;;;17.39;62.97;100271.72;4408765;32;32895;-82
2022/05/05 06:11:21;;;;;;;14.15;9.57;;;;;;;17.43;62.74;100274.44;4444980;32;33818;-82
2022/05/05 06:13:50;;;;;;;15.50;9.50;;;;;;;17.54;62.30;100279.94;4446881;32;34656;-82
2022/05/05 06:16:18;;;;;;;16.33;9.63;;;;;;;17.55;62.29;100278.19;4430589;32;33555;-83
2022/05/05 06:18:46;;;;;;;14.93;10.13;;;;;;;17.66;61.92;100279.34;4452479;32;33967;-83
2022/05/05 06:21:14;;;;;;;16.17;10.35;;;;;;;17.78;61.40;100274.37;4446088;32;33916;-82
2022/05/05 06:23:41;;;;;;;15.02;9.75;;;;;;;17.80;61.67;100283.16;4449191;32;33974;-83
2022/05/05 06:26:09;;;;;;;16.73;10.95;;;;;;;18.20;60.90;100284.09;4446285;32;33371;-83
2022/05/05 06:28:36;;;;;;;17.85;10.95;;;;;;;17.80;61.48;100280.53;4449595;32;34624;-82
2022/05/05 06:31:05;;;;;;;18.40;10.80;;;;;;;18.16;60.68;100279.62;4449358;32;33788;-82
2022/05/05 06:33:33;;;;;;;16.40;10.73;;;;;;;18.07;61.29;100282.06;4444658;32;34053;-81
2022/05/05 06:36:00;;;;;;;18.73;11.32;;;;;;;18.01;61.85;100281.91;4432965;32;32432;-82
2022/05/05 06:38:28;;;;;;;15.60;11.50;;;;;;;17.99;61.68;100288.88;4442963;32;33984;-82
2022/05/05 06:40:56;;;;;;;13.00;9.18;;;;;;;18.50;60.73;100296.06;4431064;32;33928;-83
2022/05/05 06:43:24;;;;;;;13.10;8.77;;;;;;;17.71;61.43;100290.78;4427365;32;32585;-82
2022/05/05 06:45:52;;;;;;;10.95;8.32;;;;;;;17.71;61.58;100293.41;4430570;32;33673;-83
2022/05/05 06:48:19;;;;;;;11.75;8.73;;;;;;;17.86;61.42;100301.66;4447755;32;34453;-82
2022/05/05 06:50:47;;;;;;;11.90;7.82;;;;;;;17.87;61.22;100300.84;4427927;32;33735;-83
2022/05/05 06:53:15;;;;;;;10.57;7.60;;;;;;;17.94;59.94;100295.72;4431941;32;32225;-83
2022/05/05 06:55:42;;;;;;;10.25;7.50;;;;;;;17.96;60.21;100294.03;4417764;32;32141;-83
2022/05/05 06:58:09;;;;;;;10.25;6.78;;;;;;;17.97;60.39;100290.56;4449371;32;34172;-83
2022/05/05 07:03:23;;;;;;;10.05;6.22;;;;;;;18.32;59.20;100304.44;4444255;32;34322;-83
2022/05/05 07:05:53;;;;;;;8.48;6.53;;;;;;;18.50;57.77;100311.81;4447801;32;33991;-82
2022/05/05 07:08:21;;;;;;;9.25;6.75;;;;;;;19.00;56.29;100301.44;4451276;32;33615;-82
2022/05/05 07:10:55;;;;;;;10.38;7.00;;;;;;;18.93;56.94;100303.94;4445464;32;34405;-83
2022/05/05 07:13:24;;;;;;;9.77;6.25;;;;;;;18.71;56.69;100298.25;4447472;32;34055;-82
2022/05/05 07:15:51;;;;;;;9.60;6.60;;;;;;;19.14;56.60;100301.72;4430753;32;32961;-83
2022/05/05 07:18:19;;;;;;;8.18;5.75;;;;;;;19.56;55.62;100307.66;4451402;32;34967;-82
2022/05/05 07:20:47;;;;;;;10.50;6.32;;;;;;;19.34;56.39;100307.31;4449260;32;33912;-83
2022/05/05 07:23:14;;;;;;;10.30;5.80;;;;;;;19.67;54.79;100300.84;4446232;32;34389;-82
2022/05/05 07:25:42;;;;;;;10.68;6.90;;;;;;;19.71;55.15;100313.19;4444573;32;33344;-83
2022/05/05 07:28:10;;;;;;;14.38;6.87;;;;;;;19.56;54.41;100307.66;4441854;32;33721;-82
2022/05/05 07:30:37;;;;;;;11.43;6.95;;;;;;;19.52;54.45;100308.47;4433775;32;34605;-83
2022/05/05 07:33:06;;;;;;;11.12;6.85;;;;;;;19.76;53.71;100308.00;4445495;32;32545;-82
2022/05/05 07:35:36;;;;;;;10.50;6.93;;;;;;;19.53;54.04;100307.59;4446109;32;33708;-83
2022/05/05 07:38:05;;;;;;;13.95;6.20;;;;;;;19.60;53.60;100320.00;4451965;32;33702;-82
2022/05/05 07:40:32;;;;;;;9.05;6.55;;;;;;;19.87;53.34;100316.06;4429124;32;33525;-83
2022/05/05 07:43:00;;;;;;;8.43;5.45;;;;;;;20.00;52.90;100320.66;4450101;32;33632;-83
2022/05/05 07:45:28;;;;;;;13.35;6.53;;;;;;;20.13;52.65;100317.34;4444760;32;34048;-83
2022/05/05 07:47:59;;;;;;;9.02;5.93;;;;;;;20.16;52.66;100317.38;4430284;32;34376;-83
2022/05/05 07:50:27;;;;;;;8.18;6.20;;;;;;;20.27;52.63;100311.41;4447275;32;34665;-83
2022/05/05 07:52:55;;;;;;;10.63;5.97;;;;;;;20.20;52.51;100313.94;4448369;32;33578;-83
2022/05/05 07:55:23;;;;;;;9.15;6.10;;;;;;;20.23;52.34;100316.59;4445101;32;33421;-83
2022/05/05 07:57:50;;;;;;;8.45;5.12;;;;;;;20.33;51.64;100314.97;4448816;32;34074;-83
2022/05/05 08:00:18;;;;;;;9.73;6.18;;;;;;;20.50;51.40;100317.84;4448911;32;33859;-84
2022/05/05 08:02:46;;;;;;;9.25;5.90;;;;;;;20.62;51.27;100318.00;4424319;32;33462;-82
2022/05/05 08:05:14;;;;;;;11.45;5.93;;;;;;;20.73;51.37;100320.78;4446324;32;31738;-83
2022/05/05 08:07:48;;;;;;;8.60;5.37;;;;;;;21.06;49.80;100321.16;4451481;32;33677;-83
2022/05/05 08:10:20;;;;;;;8.45;5.75;;;;;;;21.04;49.71;100326.38;4415377;32;33524;-82
2022/05/05 08:12:49;;;;;;;9.02;5.15;;;;;;;21.13;49.66;100325.59;4425353;32;34388;-83
2022/05/05 08:15:16;;;;;;;9.10;5.20;;;;;;;21.33;49.04;100324.03;4425418;32;33819;-83
2022/05/05 08:17:45;;;;;;;6.62;4.72;;;;;;;21.38;48.32;100332.88;4436370;32;33850;-83
2022/05/05 08:20:13;;;;;;;9.20;5.22;;;;;;;21.45;48.84;100327.69;4424074;32;33737;-83
2022/05/05 08:22:41;;;;;;;7.90;5.18;;;;;;;21.56;47.66;100331.31;4433539;32;34437;-83
2022/05/05 08:30:43;;;;;;;6.62;4.50;;;;;;;21.74;47.46;100330.56;4431013;32;33673;-83
2022/05/05 08:33:11;;;;;;;6.28;4.68;;;;;;;21.63;47.75;100332.22;4437315;32;33825;-83
2022/05/05 08:35:41;;;;;;;6.30;4.47;;;;;;;21.72;47.26;100335.81;4430275;32;33220;-83
2022/05/05 08:38:08;;;;;;;9.77;4.30;;;;;;;21.88;46.57;100330.66;4439008;32;34105;-83
2022/05/05 08:40:39;;;;;;;7.05;4.65;;;;;;;22.17;46.26;100328.22;4423373;32;33958;-84
2022/05/05 08:43:07;;;;;;;7.28;4.50;;;;;;;22.48;45.65;100331.91;4426744;32;33877;-83
2022/05/05 08:45:36;;;;;;;6.20;4.47;;;;;;;22.52;45.93;100333.72;4431425;32;33500;-84
2022/05/05 08:48:07;;;;;;;7.90;5.03;;;;;;;22.83;44.89;100328.56;4427435;32;33973;-83
2022/05/05 08:50:36;;;;;;;7.03;3.83;;;;;;;23.05;44.17;100333.94;4424114;32;33934;-84
2022/05/05 08:53:04;;;;;;;6.15;3.65;;;;;;;23.27;43.31;100327.78;4422551;32;33807;-83
2022/05/05 08:55:32;;;;;;;6.93;3.40;;;;;;;23.11;42.42;100331.28;4423842;32;33223;-83
2022/05/05 08:58:00;;;;;;;6.32;3.67;;;;;;;23.56;41.64;100332.22;4429155;32;33973;-82
2022/05/05 09:00:29;;;;;;;5.70;3.75;;;;;;;23.98;40.90;100335.75;4425072;32;34603;-83
2022/05/05 09:03:01;;;;;;;6.55;3.97;;;;;;;24.05;41.71;100337.50;4423378;32;34029;-83
2022/05/05 09:05:43;;;;;;;7.90;4.07;;;;;;;24.10;41.08;100330.44;4433018;32;34153;-83
2022/05/05 09:08:32;;;;;;;7.30;4.07;;;;;;;24.40;40.42;100336.53;4418019;32;33805;-83
2022/05/05 09:11:02;;;;;;;5.78;3.90;;;;;;;24.19;40.44;100333.97;4448233;32;34709;-84
2022/05/05 09:13:36;;;;;;;8.02;4.18;;;;;;;24.46;40.18;100333.88;4434070;32;33161;-83
2022/05/05 09:16:05;;;;;;;8.87;4.10;;;;;;;24.99;38.90;100333.66;4432541;32;31787;-85
2022/05/05 09:18:34;;;;;;;7.30;4.00;;;;;;;24.91;38.97;100337.22;4449300;32;34035;-84
2022/05/05 09:21:03;;;;;;;5.85;3.85;;;;;;;25.16;38.67;100331.78;4423124;32;33802;-86
2022/05/05 09:23:32;;;;;;;6.50;4.10;;;;;;;25.28;39.00;100341.44;4441708;32;33829;-81
2022/05/05 09:26:02;;;;;;;5.57;3.60;;;;;;;24.98;38.80;100342.50;4451085;32;34063;-82
2022/05/05 09:28:32;;;;;;;5.15;3.53;;;;;;;25.60;37.65;100338.56;4448269;32;33775;-82
2022/05/05 09:31:09;;;;;;;7.30;3.80;;;;;;;25.37;37.81;100335.22;4447748;32;33442;-82
2022/05/05 09:33:39;;;;;;;4.85;3.40;;;;;;;25.38;37.32;100339.59;4446434;32;34052;-82
2022/05/05 09:36:09;;;;;;;8.20;3.90;;;;;;;25.39;38.10;100336.94;4440653;32;33348;-83
2022/05/05 09:38:51;;;;;;;7.07;3.65;;;;;;;25.30;36.26;100334.34;4436100;32;33341;-82
2022/05/05 09:41:28;;;;;;;4.60;3.12;;;;;;;25.65;36.98;100331.44;4452737;32;33951;-81
2022/05/05 09:44:02;;;;;;;8.38;3.05;;;;;;;25.88;36.91;100333.00;4439340;32;34693;-82
2022/05/05 09:46:32;;;;;;;6.00;3.00;;;;;;;25.91;35.71;100333.00;4437720;32;33241;-83
2022/05/05 09:49:12;;;;;;;4.37;2.70;;;;;;;26.27;35.20;100336.19;4447045;32;34399;-83
2022/05/05 09:57:40;;;;;;;6.50;2.60;;;;;;;26.69;34.46;100325.94;4452560;32;33982;-85
2022/05/05 10:00:31;;;;;;;5.68;3.00;;;;;;;26.41;35.01;100328.94;4435417;32;33539;-83
2022/05/05 10:05:52;;;;;;;4.57;2.95;;;;;;;26.87;33.26;100327.50;4439283;32;33513;-82
2022/05/05 10:08:24;;;;;;;6.60;3.03;;;;;;;26.64;33.64;100330.47;4434734;32;33596;-82
2022/05/05 10:10:52;;;;;;;5.68;2.87;;;;;;;25.88;35.26;100330.34;4430569;32;33972;-84
2022/05/05 10:13:20;;;;;;;3.95;2.33;;;;;;;26.04;32.98;100326.69;4428669;32;32167;-84
2022/05/05 10:15:50;;;;;;;5.47;3.03;;;;;;;26.70;32.83;100311.78;4437383;32;33936;-85
2022/05/05 10:18:27;;;;;;;5.00;2.90;;;;;;;26.70;33.14;100317.09;4421410;32;32533;-87
2022/05/05 10:20:57;;;;;;;6.03;2.60;;;;;;;27.04;32.61;100313.94;4439918;32;35625;-84
2022/05/05 10:23:46;;;;;;;3.95;2.37;;;;;;;26.91;32.47;100320.34;4426403;32;31863;-86
2022/05/05 10:26:21;;;;;;;4.30;2.62;;;;;;;25.87;33.37;100323.28;4433109;32;34400;-85
2022/05/05 10:28:49;;;;;;;5.68;2.62;;;;;;;26.73;33.45;100314.38;4409833;32;34947;-85
2022/05/05 10:31:30;;;;;;;5.50;2.75;;;;;;;25.75;35.60;100313.69;4437438;32;33860;-88
2022/05/05 10:34:13;;;;;;;5.12;2.42;;;;;;;25.75;33.61;100320.72;4438542;32;32650;-88
2022/05/05 10:36:58;;;;;;;3.65;2.50;;;;;;;25.93;34.25;100317.94;4423494;32;33778;-85
2022/05/05 10:39:41;;;;;;;5.10;2.67;;;;;;;26.98;30.84;100314.03;4417163;32;32516;-86
2022/05/05 10:42:13;;;;;;;4.00;2.20;;;;;;;27.47;31.29;100323.97;4427780;32;33531;-87
2022/05/05 10:45:09;;;;;;;4.45;2.40;;;;;;;27.63;31.82;100320.12;4425490;32;33759;-85
2022/05/05 10:47:54;;;;;;;3.90;2.62;;;;;;;27.70;30.24;100315.59;4449784;32;33376;-85
2022/05/05 10:50:28;;;;;;;;;;;;;;;26.90;31.34;100315.94;4428526;32;31870;-87
2022/05/05 10:52:57;;;;;;;4.47;2.22;;;;;;;28.00;29.97;100314.19;4425176;32;34025;-87
2022/05/05 10:55:26;;;;;;;6.68;2.60;;;;;;;27.95;31.51;100316.06;4421364;32;33852;-89
2022/05/05 10:58:53;;;;;;;4.93;2.67;;;;;;;28.20;30.88;100311.16;4431962;32;34074;-85
2022/05/05 11:01:21;;;;;;;7.53;2.70;;;;;;;28.72;29.18;100309.19;4427977;32;33477;-88
2022/05/05 11:04:06;;;;;;;5.22;2.62;;;;;;;28.90;29.63;100307.94;4424569;32;32358;-87
2022/05/05 11:06:35;;;;;;;5.72;2.95;;;;;;;29.29;28.20;100305.28;4424749;32;33078;-85
2022/05/05 11:09:02;;;;;;;6.75;2.97;;;;;;;27.09;31.62;100306.78;4438867;32;34597;-87
2022/05/05 11:11:42;;;;;;;6.97;2.75;;;;;;;26.21;30.84;100307.03;4425391;32;32623;-86
2022/05/05 11:23:00;;;;;;;5.03;2.72;;;;;;;27.40;30.39;100301.91;4441109;32;33353;-86
2022/05/05 11:25:28;;;;;;;6.78;2.70;;;;;;;27.54;30.50;100299.00;4433958;32;33548;-87
2022/05/05 11:27:56;;;;;;;3.85;2.58;;;;;;;28.12;31.00;100296.22;4428048;32;34054;-88
2022/05/05 11:30:24;;;;;;;8.88;3.00;;;;;;;28.40;29.63;100289.44;4440275;32;34152;-87
2022/05/05 11:32:52;;;;;;;11.68;3.10;;;;;;;27.29;30.11;100297.66;4422988;32;32949;-88
2022/05/05 11:35:40;;;;;;;5.87;2.78;;;;;;;28.49;29.91;100284.81;4419499;32;33585;-87
2022/05/05 11:38:11;;;;;;;4.15;2.47;;;;;;;27.89;30.77;100286.88;4424932;32;32063;-85
2022/05/05 11:40:38;;;;;;;5.62;2.37;;;;;;;28.32;31.36;100287.81;4447275;32;33912;-86
2022/05/05 11:45:54;;;;;;;4.68;2.42;;;;;;;28.96;27.96;100281.13;4434626;32;34494;-86
2022/05/05 11:48:22;;;;;;;5.60;2.62;;;;;;;29.43;28.65;100280.91;4422787;32;33900;-86
2022/05/05 11:51:06;;;;;;;7.72;2.85;;;;;;;29.45;29.05;100278.22;4437211;32;34034;-88
2022/05/05 11:53:35;;;;;;;3.90;2.55;;;;;;;28.12;29.72;100267.78;4444695;32;34339;-86
2022/05/05 11:56:04;;;;;;;6.68;2.67;;;;;;;26.73;30.23;100265.69;4446445;32;34595;-86
2022/05/05 12:01:41;;;;;;;4.85;2.78;;;;;;;27.60;30.17;100261.66;4440320;32;34689;-88
2022/05/05 12:04:10;;;;;;;5.90;2.45;;;;;;;27.19;30.00;100259.66;4440817;32;32881;-89
2022/05/05 12:06:39;;;;;;;5.45;2.62;;;;;;;28.07;29.90;100255.47;4438482;32;34481;-88
2022/05/05 12:09:08;;;;;;;4.78;2.53;;;;;;;27.88;29.09;100254.94;4433051;32;34041;-87
2022/05/05 12:11:36;;;;;;;5.60;2.65;;;;;;;26.32;31.22;100249.34;4418901;32;33002;-91
2022/05/05 12:14:22;;;;;;;4.85;2.55;;;;;;;26.56;31.57;100247.28;4413190;32;32034;-92